sensor_id;sensor_type;location;lat;lon;timestamp;P1;durP1;ratioP1;P2;durP2;ratioP2
11488;SDS011;5801;50.804;12.638;2023-05-07T00:00:06;20.45;;;10.40;;
11488;SDS011;5801;50.804;12.638;2023-05-07T00:02:33;18.15;;;9.23;;
11488;SDS011;5801;50.804;12.638;2023-05-07T00:04:58;20.20;;;9.13;;
11488;SDS011;5801;50.804;12.638;2023-05-07T00:07:24;24.25;;;8.82;;
11488;SDS011;5801;50.804;12.638;2023-05-07T00:09:50;19.35;;;8.95;;
11488;SDS011;5801;50.804;12.638;2023-05-07T00:12:16;17.20;;;9.10;;
11488;SDS011;5801;50.804;12.638;2023-05-07T00:14:42;20.02;;;8.77;;
11488;SDS011;5801;50.804;12.638;2023-05-07T00:17:08;14.80;;;8.05;;
11488;SDS011;5801;50.804;12.638;2023-05-07T00:19:34;17.25;;;8.90;;
11488;SDS011;5801;50.804;12.638;2023-05-07T00:22:00;16.35;;;9.07;;
11488;SDS011;5801;50.804;12.638;2023-05-07T00:24:26;12.07;;;7.72;;
11488;SDS011;5801;50.804;12.638;2023-05-07T00:26:52;15.60;;;7.57;;
11488;SDS011;5801;50.804;12.638;2023-05-07T00:29:18;19.40;;;7.68;;
11488;SDS011;5801;50.804;12.638;2023-05-07T00:31:44;16.90;;;7.35;;
11488;SDS011;5801;50.804;12.638;2023-05-07T00:34:10;13.13;;;7.65;;
11488;SDS011;5801;50.804;12.638;2023-05-07T00:36:36;15.43;;;7.53;;
11488;SDS011;5801;50.804;12.638;2023-05-07T00:39:02;16.52;;;8.38;;
11488;SDS011;5801;50.804;12.638;2023-05-07T00:41:28;17.00;;;7.22;;
11488;SDS011;5801;50.804;12.638;2023-05-07T00:43:55;13.60;;;7.00;;
11488;SDS011;5801;50.804;12.638;2023-05-07T00:46:21;14.10;;;7.20;;
11488;SDS011;5801;50.804;12.638;2023-05-07T00:48:48;15.10;;;7.95;;
11488;SDS011;5801;50.804;12.638;2023-05-07T00:51:15;8.85;;;5.50;;
11488;SDS011;5801;50.804;12.638;2023-05-07T00:53:41;11.73;;;6.32;;
11488;SDS011;5801;50.804;12.638;2023-05-07T00:56:07;11.43;;;5.38;;
11488;SDS011;5801;50.804;12.638;2023-05-07T00:58:33;13.43;;;6.38;;
11488;SDS011;5801;50.804;12.638;2023-05-07T01:00:59;9.93;;;5.70;;
11488;SDS011;5801;50.804;12.638;2023-05-07T01:03:25;16.30;;;6.18;;
11488;SDS011;5801;50.804;12.638;2023-05-07T01:05:52;12.10;;;6.47;;
11488;SDS011;5801;50.804;12.638;2023-05-07T01:08:19;12.07;;;6.07;;
11488;SDS011;5801;50.804;12.638;2023-05-07T01:10:45;10.43;;;6.18;;
11488;SDS011;5801;50.804;12.638;2023-05-07T01:13:12;10.18;;;5.82;;
11488;SDS011;5801;50.804;12.638;2023-05-07T01:15:38;11.05;;;5.75;;
11488;SDS011;5801;50.804;12.638;2023-05-07T01:18:05;11.13;;;5.82;;
11488;SDS011;5801;50.804;12.638;2023-05-07T01:20:31;9.27;;;5.20;;
11488;SDS011;5801;50.804;12.638;2023-05-07T01:22:57;11.27;;;5.85;;
11488;SDS011;5801;50.804;12.638;2023-05-07T01:25:24;9.55;;;6.45;;
11488;SDS011;5801;50.804;12.638;2023-05-07T01:27:50;8.05;;;5.40;;
11488;SDS011;5801;50.804;12.638;2023-05-07T01:30:16;9.55;;;5.65;;
11488;SDS011;5801;50.804;12.638;2023-05-07T01:35:22;9.38;;;5.32;;
11488;SDS011;5801;50.804;12.638;2023-05-07T01:37:48;9.57;;;5.13;;
11488;SDS011;5801;50.804;12.638;2023-05-07T01:40:15;6.00;;;4.13;;
11488;SDS011;5801;50.804;12.638;2023-05-07T01:42:41;9.25;;;6.07;;
11488;SDS011;5801;50.804;12.638;2023-05-07T01:45:08;9.55;;;5.40;;
11488;SDS011;5801;50.804;12.638;2023-05-07T01:47:35;8.38;;;5.03;;
11488;SDS011;5801;50.804;12.638;2023-05-07T01:50:01;13.07;;;5.45;;
11488;SDS011;5801;50.804;12.638;2023-05-07T01:52:27;11.27;;;6.20;;
11488;SDS011;5801;50.804;12.638;2023-05-07T01:54:54;10.40;;;5.82;;
11488;SDS011;5801;50.804;12.638;2023-05-07T01:57:20;12.45;;;6.15;;
11488;SDS011;5801;50.804;12.638;2023-05-07T01:59:46;9.52;;;5.32;;
11488;SDS011;5801;50.804;12.638;2023-05-07T02:02:12;12.50;;;5.63;;
11488;SDS011;5801;50.804;12.638;2023-05-07T02:04:38;11.10;;;6.45;;
11488;SDS011;5801;50.804;12.638;2023-05-07T02:07:03;14.80;;;6.50;;
11488;SDS011;5801;50.804;12.638;2023-05-07T02:09:29;9.07;;;5.60;;
11488;SDS011;5801;50.804;12.638;2023-05-07T02:11:55;9.77;;;6.28;;
11488;SDS011;5801;50.804;12.638;2023-05-07T02:14:21;10.15;;;5.80;;
11488;SDS011;5801;50.804;12.638;2023-05-07T02:16:47;9.80;;;5.78;;
11488;SDS011;5801;50.804;12.638;2023-05-07T02:19:13;12.50;;;6.88;;
11488;SDS011;5801;50.804;12.638;2023-05-07T02:21:39;12.65;;;6.85;;
11488;SDS011;5801;50.804;12.638;2023-05-07T02:24:05;10.45;;;6.05;;
11488;SDS011;5801;50.804;12.638;2023-05-07T02:26:31;12.95;;;6.38;;
11488;SDS011;5801;50.804;12.638;2023-05-07T02:28:57;13.80;;;7.60;;
11488;SDS011;5801;50.804;12.638;2023-05-07T02:31:23;13.25;;;7.50;;
11488;SDS011;5801;50.804;12.638;2023-05-07T02:33:49;14.63;;;7.32;;
11488;SDS011;5801;50.804;12.638;2023-05-07T02:36:15;14.77;;;7.47;;
11488;SDS011;5801;50.804;12.638;2023-05-07T02:38:41;19.20;;;8.65;;
11488;SDS011;5801;50.804;12.638;2023-05-07T02:41:07;14.52;;;7.15;;
11488;SDS011;5801;50.804;12.638;2023-05-07T02:43:33;16.38;;;7.38;;
11488;SDS011;5801;50.804;12.638;2023-05-07T02:48:28;18.02;;;9.27;;
11488;SDS011;5801;50.804;12.638;2023-05-07T02:50:53;14.73;;;8.55;;
11488;SDS011;5801;50.804;12.638;2023-05-07T02:53:19;15.43;;;8.02;;
11488;SDS011;5801;50.804;12.638;2023-05-07T02:55:45;17.50;;;9.00;;
11488;SDS011;5801;50.804;12.638;2023-05-07T02:58:11;13.00;;;8.65;;
11488;SDS011;5801;50.804;12.638;2023-05-07T03:00:37;16.05;;;8.43;;
11488;SDS011;5801;50.804;12.638;2023-05-07T03:03:03;19.10;;;9.90;;
11488;SDS011;5801;50.804;12.638;2023-05-07T03:05:29;21.80;;;9.18;;
11488;SDS011;5801;50.804;12.638;2023-05-07T03:07:55;14.35;;;8.57;;
11488;SDS011;5801;50.804;12.638;2023-05-07T03:10:21;18.75;;;8.98;;
11488;SDS011;5801;50.804;12.638;2023-05-07T03:12:47;18.15;;;8.90;;
11488;SDS011;5801;50.804;12.638;2023-05-07T03:15:13;13.43;;;8.13;;
11488;SDS011;5801;50.804;12.638;2023-05-07T03:17:39;18.02;;;9.80;;
11488;SDS011;5801;50.804;12.638;2023-05-07T03:20:05;15.63;;;8.07;;
11488;SDS011;5801;50.804;12.638;2023-05-07T03:22:31;18.67;;;9.05;;
11488;SDS011;5801;50.804;12.638;2023-05-07T03:24:57;17.95;;;8.07;;
11488;SDS011;5801;50.804;12.638;2023-05-07T03:27:23;17.25;;;8.52;;
11488;SDS011;5801;50.804;12.638;2023-05-07T03:29:49;13.70;;;8.43;;
11488;SDS011;5801;50.804;12.638;2023-05-07T03:32:15;16.10;;;9.18;;
11488;SDS011;5801;50.804;12.638;2023-05-07T03:34:41;17.27;;;8.57;;
11488;SDS011;5801;50.804;12.638;2023-05-07T03:37:07;20.95;;;10.18;;
11488;SDS011;5801;50.804;12.638;2023-05-07T03:39:33;24.40;;;8.10;;
11488;SDS011;5801;50.804;12.638;2023-05-07T03:41:59;16.73;;;9.65;;
11488;SDS011;5801;50.804;12.638;2023-05-07T03:44:25;16.10;;;8.18;;
11488;SDS011;5801;50.804;12.638;2023-05-07T03:46:51;16.67;;;8.68;;
11488;SDS011;5801;50.804;12.638;2023-05-07T03:49:17;14.77;;;7.20;;
11488;SDS011;5801;50.804;12.638;2023-05-07T03:51:43;16.33;;;8.18;;
11488;SDS011;5801;50.804;12.638;2023-05-07T03:54:09;20.75;;;7.88;;
11488;SDS011;5801;50.804;12.638;2023-05-07T03:56:35;16.45;;;8.25;;
11488;SDS011;5801;50.804;12.638;2023-05-07T03:59:01;14.43;;;8.10;;
11488;SDS011;5801;50.804;12.638;2023-05-07T04:01:27;15.93;;;8.40;;
11488;SDS011;5801;50.804;12.638;2023-05-07T04:03:53;16.35;;;8.63;;
11488;SDS011;5801;50.804;12.638;2023-05-07T04:06:19;18.75;;;8.05;;
11488;SDS011;5801;50.804;12.638;2023-05-07T04:08:45;18.40;;;9.63;;
11488;SDS011;5801;50.804;12.638;2023-05-07T04:11:11;18.00;;;9.25;;
11488;SDS011;5801;50.804;12.638;2023-05-07T04:13:37;21.88;;;9.05;;
11488;SDS011;5801;50.804;12.638;2023-05-07T04:16:03;18.13;;;9.80;;
11488;SDS011;5801;50.804;12.638;2023-05-07T04:18:29;17.63;;;8.60;;
11488;SDS011;5801;50.804;12.638;2023-05-07T04:20:55;15.18;;;8.43;;
11488;SDS011;5801;50.804;12.638;2023-05-07T04:23:21;16.88;;;8.45;;
11488;SDS011;5801;50.804;12.638;2023-05-07T04:25:47;14.00;;;8.48;;
11488;SDS011;5801;50.804;12.638;2023-05-07T04:28:13;19.15;;;9.63;;
11488;SDS011;5801;50.804;12.638;2023-05-07T04:30:39;14.80;;;7.88;;
11488;SDS011;5801;50.804;12.638;2023-05-07T04:33:06;18.70;;;9.73;;
11488;SDS011;5801;50.804;12.638;2023-05-07T04:35:32;18.10;;;8.60;;
11488;SDS011;5801;50.804;12.638;2023-05-07T04:37:58;19.25;;;9.40;;
11488;SDS011;5801;50.804;12.638;2023-05-07T04:40:24;22.48;;;10.15;;
11488;SDS011;5801;50.804;12.638;2023-05-07T04:42:50;19.10;;;9.23;;
11488;SDS011;5801;50.804;12.638;2023-05-07T04:45:16;17.05;;;9.32;;
11488;SDS011;5801;50.804;12.638;2023-05-07T04:47:42;17.58;;;10.02;;
11488;SDS011;5801;50.804;12.638;2023-05-07T04:50:08;21.77;;;9.73;;
11488;SDS011;5801;50.804;12.638;2023-05-07T04:52:34;18.67;;;9.73;;
11488;SDS011;5801;50.804;12.638;2023-05-07T04:55:00;17.52;;;9.77;;
11488;SDS011;5801;50.804;12.638;2023-05-07T04:57:26;22.55;;;9.02;;
11488;SDS011;5801;50.804;12.638;2023-05-07T04:59:53;20.00;;;9.05;;
11488;SDS011;5801;50.804;12.638;2023-05-07T05:02:19;17.30;;;8.77;;
11488;SDS011;5801;50.804;12.638;2023-05-07T05:04:45;17.80;;;9.02;;
11488;SDS011;5801;50.804;12.638;2023-05-07T05:07:11;19.23;;;8.63;;
11488;SDS011;5801;50.804;12.638;2023-05-07T05:09:37;16.50;;;8.45;;
11488;SDS011;5801;50.804;12.638;2023-05-07T05:12:03;14.60;;;7.43;;
11488;SDS011;5801;50.804;12.638;2023-05-07T05:14:32;16.52;;;8.88;;
11488;SDS011;5801;50.804;12.638;2023-05-07T05:16:57;15.02;;;9.45;;
11488;SDS011;5801;50.804;12.638;2023-05-07T05:19:23;16.08;;;8.52;;
11488;SDS011;5801;50.804;12.638;2023-05-07T05:21:49;14.98;;;8.02;;
11488;SDS011;5801;50.804;12.638;2023-05-07T05:24:15;15.07;;;8.57;;
11488;SDS011;5801;50.804;12.638;2023-05-07T05:26:41;15.55;;;7.65;;
11488;SDS011;5801;50.804;12.638;2023-05-07T05:29:07;13.15;;;6.82;;
11488;SDS011;5801;50.804;12.638;2023-05-07T05:31:33;13.60;;;7.65;;
11488;SDS011;5801;50.804;12.638;2023-05-07T05:33:59;13.10;;;7.70;;
11488;SDS011;5801;50.804;12.638;2023-05-07T05:36:25;14.18;;;7.57;;
11488;SDS011;5801;50.804;12.638;2023-05-07T05:38:51;13.45;;;6.50;;
11488;SDS011;5801;50.804;12.638;2023-05-07T05:41:17;11.07;;;6.78;;
11488;SDS011;5801;50.804;12.638;2023-05-07T05:43:43;10.82;;;6.10;;
11488;SDS011;5801;50.804;12.638;2023-05-07T05:46:09;11.60;;;6.55;;
11488;SDS011;5801;50.804;12.638;2023-05-07T05:48:36;11.15;;;6.55;;
11488;SDS011;5801;50.804;12.638;2023-05-07T05:51:02;9.80;;;6.15;;
11488;SDS011;5801;50.804;12.638;2023-05-07T05:53:28;13.25;;;6.00;;
11488;SDS011;5801;50.804;12.638;2023-05-07T05:55:54;7.55;;;5.28;;
11488;SDS011;5801;50.804;12.638;2023-05-07T05:58:20;14.43;;;6.32;;
11488;SDS011;5801;50.804;12.638;2023-05-07T06:00:46;10.57;;;5.57;;
11488;SDS011;5801;50.804;12.638;2023-05-07T06:03:13;11.77;;;6.88;;
11488;SDS011;5801;50.804;12.638;2023-05-07T06:05:39;13.65;;;6.78;;
11488;SDS011;5801;50.804;12.638;2023-05-07T06:08:05;8.43;;;6.20;;
11488;SDS011;5801;50.804;12.638;2023-05-07T06:10:30;10.07;;;6.18;;
11488;SDS011;5801;50.804;12.638;2023-05-07T06:12:56;12.18;;;6.82;;
11488;SDS011;5801;50.804;12.638;2023-05-07T06:15:22;12.15;;;7.43;;
11488;SDS011;5801;50.804;12.638;2023-05-07T06:17:48;12.63;;;7.65;;
11488;SDS011;5801;50.804;12.638;2023-05-07T06:20:14;15.55;;;7.65;;
11488;SDS011;5801;50.804;12.638;2023-05-07T06:22:40;19.25;;;8.50;;
11488;SDS011;5801;50.804;12.638;2023-05-07T06:25:06;18.55;;;8.57;;
11488;SDS011;5801;50.804;12.638;2023-05-07T06:27:32;15.57;;;7.70;;
11488;SDS011;5801;50.804;12.638;2023-05-07T06:29:58;15.82;;;9.23;;
11488;SDS011;5801;50.804;12.638;2023-05-07T06:32:24;13.00;;;7.40;;
11488;SDS011;5801;50.804;12.638;2023-05-07T06:34:50;12.75;;;8.27;;
11488;SDS011;5801;50.804;12.638;2023-05-07T06:37:16;16.05;;;7.35;;
11488;SDS011;5801;50.804;12.638;2023-05-07T06:39:42;12.52;;;7.30;;
11488;SDS011;5801;50.804;12.638;2023-05-07T06:42:08;11.20;;;6.28;;
11488;SDS011;5801;50.804;12.638;2023-05-07T06:44:33;12.90;;;7.30;;
11488;SDS011;5801;50.804;12.638;2023-05-07T06:46:59;10.23;;;7.00;;
11488;SDS011;5801;50.804;12.638;2023-05-07T06:49:26;12.77;;;7.18;;
11488;SDS011;5801;50.804;12.638;2023-05-07T06:51:52;10.60;;;5.90;;
11488;SDS011;5801;50.804;12.638;2023-05-07T06:54:18;13.45;;;5.70;;
11488;SDS011;5801;50.804;12.638;2023-05-07T06:56:45;10.48;;;5.78;;
11488;SDS011;5801;50.804;12.638;2023-05-07T06:59:11;10.25;;;5.93;;
11488;SDS011;5801;50.804;12.638;2023-05-07T07:01:36;8.38;;;5.57;;
11488;SDS011;5801;50.804;12.638;2023-05-07T07:04:02;8.93;;;5.53;;
11488;SDS011;5801;50.804;12.638;2023-05-07T07:06:28;9.82;;;5.57;;
11488;SDS011;5801;50.804;12.638;2023-05-07T07:08:56;8.45;;;4.55;;
11488;SDS011;5801;50.804;12.638;2023-05-07T07:11:22;7.70;;;5.22;;
11488;SDS011;5801;50.804;12.638;2023-05-07T07:13:48;7.38;;;5.13;;
11488;SDS011;5801;50.804;12.638;2023-05-07T07:16:15;11.57;;;6.28;;
11488;SDS011;5801;50.804;12.638;2023-05-07T07:18:41;13.57;;;5.78;;
11488;SDS011;5801;50.804;12.638;2023-05-07T07:21:07;12.77;;;7.10;;
11488;SDS011;5801;50.804;12.638;2023-05-07T07:23:33;10.23;;;5.80;;
11488;SDS011;5801;50.804;12.638;2023-05-07T07:25:59;9.23;;;5.55;;
11488;SDS011;5801;50.804;12.638;2023-05-07T07:28:25;11.30;;;6.70;;
11488;SDS011;5801;50.804;12.638;2023-05-07T07:30:51;12.90;;;6.55;;
11488;SDS011;5801;50.804;12.638;2023-05-07T07:33:16;10.65;;;6.50;;
11488;SDS011;5801;50.804;12.638;2023-05-07T07:35:42;9.85;;;5.90;;
11488;SDS011;5801;50.804;12.638;2023-05-07T07:38:08;9.90;;;5.13;;
11488;SDS011;5801;50.804;12.638;2023-05-07T07:40:35;10.07;;;5.35;;
11488;SDS011;5801;50.804;12.638;2023-05-07T07:43:01;8.05;;;4.28;;
11488;SDS011;5801;50.804;12.638;2023-05-07T07:45:27;9.73;;;4.75;;
11488;SDS011;5801;50.804;12.638;2023-05-07T07:47:53;7.40;;;4.35;;
11488;SDS011;5801;50.804;12.638;2023-05-07T07:50:19;7.00;;;4.60;;
11488;SDS011;5801;50.804;12.638;2023-05-07T07:52:45;5.70;;;3.75;;
11488;SDS011;5801;50.804;12.638;2023-05-07T07:55:11;7.35;;;4.20;;
11488;SDS011;5801;50.804;12.638;2023-05-07T07:57:37;8.40;;;4.40;;
11488;SDS011;5801;50.804;12.638;2023-05-07T08:00:03;8.02;;;5.03;;
11488;SDS011;5801;50.804;12.638;2023-05-07T08:02:31;10.27;;;6.57;;
11488;SDS011;5801;50.804;12.638;2023-05-07T08:04:57;7.38;;;4.43;;
11488;SDS011;5801;50.804;12.638;2023-05-07T08:07:22;6.70;;;5.18;;
11488;SDS011;5801;50.804;12.638;2023-05-07T08:09:48;8.02;;;4.63;;
11488;SDS011;5801;50.804;12.638;2023-05-07T08:12:14;10.32;;;5.97;;
11488;SDS011;5801;50.804;12.638;2023-05-07T08:14:41;8.18;;;5.07;;
11488;SDS011;5801;50.804;12.638;2023-05-07T08:17:07;11.65;;;5.78;;
11488;SDS011;5801;50.804;12.638;2023-05-07T08:19:35;9.52;;;5.07;;
11488;SDS011;5801;50.804;12.638;2023-05-07T08:22:02;10.48;;;5.10;;
11488;SDS011;5801;50.804;12.638;2023-05-07T08:24:27;9.30;;;5.05;;
11488;SDS011;5801;50.804;12.638;2023-05-07T08:26:53;9.10;;;5.28;;
11488;SDS011;5801;50.804;12.638;2023-05-07T08:29:19;9.88;;;4.75;;
11488;SDS011;5801;50.804;12.638;2023-05-07T08:31:45;9.52;;;4.63;;
11488;SDS011;5801;50.804;12.638;2023-05-07T08:34:11;8.48;;;5.22;;
11488;SDS011;5801;50.804;12.638;2023-05-07T08:36:37;8.25;;;5.03;;
11488;SDS011;5801;50.804;12.638;2023-05-07T08:39:03;9.30;;;4.97;;
11488;SDS011;5801;50.804;12.638;2023-05-07T08:41:29;10.05;;;5.35;;
11488;SDS011;5801;50.804;12.638;2023-05-07T08:43:56;8.52;;;4.88;;
11488;SDS011;5801;50.804;12.638;2023-05-07T08:46:23;9.85;;;5.60;;
11488;SDS011;5801;50.804;12.638;2023-05-07T08:48:51;6.72;;;4.28;;
11488;SDS011;5801;50.804;12.638;2023-05-07T08:51:18;7.60;;;4.80;;
11488;SDS011;5801;50.804;12.638;2023-05-07T08:53:44;12.30;;;5.18;;
11488;SDS011;5801;50.804;12.638;2023-05-07T08:56:10;9.85;;;5.00;;
11488;SDS011;5801;50.804;12.638;2023-05-07T08:58:37;7.65;;;5.45;;
11488;SDS011;5801;50.804;12.638;2023-05-07T09:01:03;9.98;;;5.75;;
11488;SDS011;5801;50.804;12.638;2023-05-07T09:03:32;8.65;;;5.05;;
11488;SDS011;5801;50.804;12.638;2023-05-07T09:05:58;7.85;;;4.85;;
11488;SDS011;5801;50.804;12.638;2023-05-07T09:08:25;7.63;;;4.10;;
11488;SDS011;5801;50.804;12.638;2023-05-07T09:10:51;6.88;;;4.05;;
11488;SDS011;5801;50.804;12.638;2023-05-07T09:13:17;6.07;;;4.05;;
11488;SDS011;5801;50.804;12.638;2023-05-07T09:15:44;11.05;;;4.03;;
11488;SDS011;5801;50.804;12.638;2023-05-07T09:18:09;5.70;;;3.22;;
11488;SDS011;5801;50.804;12.638;2023-05-07T09:20:39;8.32;;;3.80;;
11488;SDS011;5801;50.804;12.638;2023-05-07T09:23:05;6.80;;;4.07;;
11488;SDS011;5801;50.804;12.638;2023-05-07T09:25:32;5.65;;;3.58;;
11488;SDS011;5801;50.804;12.638;2023-05-07T09:27:59;5.90;;;3.85;;
11488;SDS011;5801;50.804;12.638;2023-05-07T09:30:28;5.97;;;3.75;;
11488;SDS011;5801;50.804;12.638;2023-05-07T09:32:55;4.57;;;3.35;;
11488;SDS011;5801;50.804;12.638;2023-05-07T09:35:21;7.13;;;3.92;;
11488;SDS011;5801;50.804;12.638;2023-05-07T09:37:49;5.88;;;3.72;;
11488;SDS011;5801;50.804;12.638;2023-05-07T09:40:25;4.88;;;3.00;;
11488;SDS011;5801;50.804;12.638;2023-05-07T09:42:51;7.88;;;3.60;;
11488;SDS011;5801;50.804;12.638;2023-05-07T09:45:27;5.97;;;3.42;;
11488;SDS011;5801;50.804;12.638;2023-05-07T09:47:53;4.22;;;2.72;;
11488;SDS011;5801;50.804;12.638;2023-05-07T09:50:20;4.13;;;3.38;;
11488;SDS011;5801;50.804;12.638;2023-05-07T09:52:47;3.40;;;3.00;;
11488;SDS011;5801;50.804;12.638;2023-05-07T09:55:13;3.35;;;2.35;;
11488;SDS011;5801;50.804;12.638;2023-05-07T09:57:40;3.85;;;2.80;;
11488;SDS011;5801;50.804;12.638;2023-05-07T10:00:07;10.82;;;2.78;;
11488;SDS011;5801;50.804;12.638;2023-05-07T10:02:34;10.38;;;4.03;;
11488;SDS011;5801;50.804;12.638;2023-05-07T10:05:01;5.60;;;3.88;;
11488;SDS011;5801;50.804;12.638;2023-05-07T10:07:27;6.00;;;4.18;;
11488;SDS011;5801;50.804;12.638;2023-05-07T10:09:54;6.47;;;3.45;;
11488;SDS011;5801;50.804;12.638;2023-05-07T10:12:20;5.65;;;4.10;;
11488;SDS011;5801;50.804;12.638;2023-05-07T10:14:46;5.88;;;3.67;;
11488;SDS011;5801;50.804;12.638;2023-05-07T10:17:13;5.47;;;3.65;;
11488;SDS011;5801;50.804;12.638;2023-05-07T10:19:42;4.72;;;3.88;;
11488;SDS011;5801;50.804;12.638;2023-05-07T10:22:09;6.97;;;5.03;;
11488;SDS011;5801;50.804;12.638;2023-05-07T10:24:36;4.93;;;4.00;;
11488;SDS011;5801;50.804;12.638;2023-05-07T10:27:04;5.03;;;3.50;;
11488;SDS011;5801;50.804;12.638;2023-05-07T10:29:39;7.13;;;4.43;;
11488;SDS011;5801;50.804;12.638;2023-05-07T10:34:58;4.35;;;3.30;;
11488;SDS011;5801;50.804;12.638;2023-05-07T10:37:27;4.43;;;3.38;;
11488;SDS011;5801;50.804;12.638;2023-05-07T10:39:53;5.20;;;3.65;;
11488;SDS011;5801;50.804;12.638;2023-05-07T10:42:20;4.10;;;3.67;;
11488;SDS011;5801;50.804;12.638;2023-05-07T10:44:46;8.45;;;3.17;;
11488;SDS011;5801;50.804;12.638;2023-05-07T10:47:12;4.50;;;3.30;;
11488;SDS011;5801;50.804;12.638;2023-05-07T10:54:40;3.60;;;2.92;;
11488;SDS011;5801;50.804;12.638;2023-05-07T10:59:51;3.95;;;2.83;;
11488;SDS011;5801;50.804;12.638;2023-05-07T11:02:18;3.60;;;2.95;;
11488;SDS011;5801;50.804;12.638;2023-05-07T11:04:44;3.80;;;3.05;;
11488;SDS011;5801;50.804;12.638;2023-05-07T11:07:21;3.63;;;2.70;;
11488;SDS011;5801;50.804;12.638;2023-05-07T11:15:11;3.28;;;2.53;;
11488;SDS011;5801;50.804;12.638;2023-05-07T11:17:56;3.20;;;2.90;;
11488;SDS011;5801;50.804;12.638;2023-05-07T11:23:08;3.67;;;2.95;;
11488;SDS011;5801;50.804;12.638;2023-05-07T11:25:34;4.13;;;3.05;;
11488;SDS011;5801;50.804;12.638;2023-05-07T11:28:04;3.35;;;2.67;;
11488;SDS011;5801;50.804;12.638;2023-05-07T11:30:30;4.10;;;3.13;;
11488;SDS011;5801;50.804;12.638;2023-05-07T11:32:56;4.32;;;2.80;;
11488;SDS011;5801;50.804;12.638;2023-05-07T11:35:22;3.67;;;2.85;;
11488;SDS011;5801;50.804;12.638;2023-05-07T11:37:49;3.75;;;3.35;;
11488;SDS011;5801;50.804;12.638;2023-05-07T11:40:15;4.78;;;3.47;;
11488;SDS011;5801;50.804;12.638;2023-05-07T11:42:41;6.68;;;3.17;;
11488;SDS011;5801;50.804;12.638;2023-05-07T11:45:08;4.47;;;3.55;;
11488;SDS011;5801;50.804;12.638;2023-05-07T11:47:34;4.82;;;3.63;;
11488;SDS011;5801;50.804;12.638;2023-05-07T11:50:04;4.18;;;3.45;;
11488;SDS011;5801;50.804;12.638;2023-05-07T11:52:30;4.13;;;3.25;;
11488;SDS011;5801;50.804;12.638;2023-05-07T11:54:57;4.28;;;3.55;;
11488;SDS011;5801;50.804;12.638;2023-05-07T11:57:24;4.25;;;2.88;;
11488;SDS011;5801;50.804;12.638;2023-05-07T11:59:54;5.18;;;3.20;;
11488;SDS011;5801;50.804;12.638;2023-05-07T12:02:20;3.65;;;3.28;;
11488;SDS011;5801;50.804;12.638;2023-05-07T12:04:46;5.90;;;3.63;;
11488;SDS011;5801;50.804;12.638;2023-05-07T12:07:12;4.45;;;3.42;;
11488;SDS011;5801;50.804;12.638;2023-05-07T12:09:38;3.92;;;3.35;;
11488;SDS011;5801;50.804;12.638;2023-05-07T12:12:04;3.45;;;3.00;;
11488;SDS011;5801;50.804;12.638;2023-05-07T12:14:30;3.75;;;2.95;;
11488;SDS011;5801;50.804;12.638;2023-05-07T12:16:57;5.40;;;3.58;;
11488;SDS011;5801;50.804;12.638;2023-05-07T12:19:23;4.70;;;3.70;;
11488;SDS011;5801;50.804;12.638;2023-05-07T12:21:49;4.10;;;2.90;;
11488;SDS011;5801;50.804;12.638;2023-05-07T12:24:15;5.05;;;3.80;;
11488;SDS011;5801;50.804;12.638;2023-05-07T12:26:41;4.05;;;2.95;;
11488;SDS011;5801;50.804;12.638;2023-05-07T12:29:08;6.07;;;4.03;;
11488;SDS011;5801;50.804;12.638;2023-05-07T12:31:34;4.82;;;3.35;;
11488;SDS011;5801;50.804;12.638;2023-05-07T12:34:00;5.60;;;4.55;;
11488;SDS011;5801;50.804;12.638;2023-05-07T12:36:26;3.92;;;3.28;;
11488;SDS011;5801;50.804;12.638;2023-05-07T12:39:01;6.93;;;4.40;;
11488;SDS011;5801;50.804;12.638;2023-05-07T12:41:28;6.07;;;3.95;;
11488;SDS011;5801;50.804;12.638;2023-05-07T12:43:56;5.72;;;3.90;;
11488;SDS011;5801;50.804;12.638;2023-05-07T12:46:22;5.68;;;3.38;;
11488;SDS011;5801;50.804;12.638;2023-05-07T12:48:48;4.40;;;3.33;;
11488;SDS011;5801;50.804;12.638;2023-05-07T12:51:14;8.25;;;3.30;;
11488;SDS011;5801;50.804;12.638;2023-05-07T12:53:41;3.83;;;3.10;;
11488;SDS011;5801;50.804;12.638;2023-05-07T12:56:07;3.20;;;2.80;;
11488;SDS011;5801;50.804;12.638;2023-05-07T12:58:34;4.15;;;3.50;;
11488;SDS011;5801;50.804;12.638;2023-05-07T13:01:05;3.40;;;2.72;;
11488;SDS011;5801;50.804;12.638;2023-05-07T13:03:32;6.18;;;3.05;;
11488;SDS011;5801;50.804;12.638;2023-05-07T13:05:59;4.28;;;3.33;;
11488;SDS011;5801;50.804;12.638;2023-05-07T13:08:32;4.35;;;3.20;;
11488;SDS011;5801;50.804;12.638;2023-05-07T13:10:59;3.33;;;3.03;;
11488;SDS011;5801;50.804;12.638;2023-05-07T13:13:32;3.90;;;3.28;;
11488;SDS011;5801;50.804;12.638;2023-05-07T13:15:58;3.80;;;3.30;;
11488;SDS011;5801;50.804;12.638;2023-05-07T13:18:25;4.53;;;3.20;;
11488;SDS011;5801;50.804;12.638;2023-05-07T13:20:51;4.03;;;3.40;;
11488;SDS011;5801;50.804;12.638;2023-05-07T13:23:17;3.47;;;3.00;;
11488;SDS011;5801;50.804;12.638;2023-05-07T13:25:43;5.78;;;3.72;;
11488;SDS011;5801;50.804;12.638;2023-05-07T13:28:09;4.80;;;3.38;;
11488;SDS011;5801;50.804;12.638;2023-05-07T13:30:35;4.90;;;3.60;;
11488;SDS011;5801;50.804;12.638;2023-05-07T13:33:01;7.90;;;3.25;;
11488;SDS011;5801;50.804;12.638;2023-05-07T13:35:27;4.05;;;3.05;;
11488;SDS011;5801;50.804;12.638;2023-05-07T13:37:53;5.13;;;3.65;;
11488;SDS011;5801;50.804;12.638;2023-05-07T13:40:19;5.00;;;3.60;;
11488;SDS011;5801;50.804;12.638;2023-05-07T13:42:46;5.35;;;3.63;;
11488;SDS011;5801;50.804;12.638;2023-05-07T13:45:11;4.15;;;3.05;;
11488;SDS011;5801;50.804;12.638;2023-05-07T13:47:39;3.92;;;3.28;;
11488;SDS011;5801;50.804;12.638;2023-05-07T13:50:05;4.53;;;3.78;;
11488;SDS011;5801;50.804;12.638;2023-05-07T13:52:31;4.07;;;3.38;;
11488;SDS011;5801;50.804;12.638;2023-05-07T13:54:57;7.90;;;3.95;;
11488;SDS011;5801;50.804;12.638;2023-05-07T13:57:23;4.97;;;3.80;;
11488;SDS011;5801;50.804;12.638;2023-05-07T13:59:49;6.53;;;3.50;;
11488;SDS011;5801;50.804;12.638;2023-05-07T14:02:15;4.80;;;3.88;;
11488;SDS011;5801;50.804;12.638;2023-05-07T14:04:41;4.57;;;3.60;;
11488;SDS011;5801;50.804;12.638;2023-05-07T14:07:07;4.93;;;3.53;;
11488;SDS011;5801;50.804;12.638;2023-05-07T14:09:33;4.05;;;3.28;;
11488;SDS011;5801;50.804;12.638;2023-05-07T14:11:59;5.18;;;3.58;;
11488;SDS011;5801;50.804;12.638;2023-05-07T14:14:26;4.28;;;3.78;;
11488;SDS011;5801;50.804;12.638;2023-05-07T14:16:52;4.45;;;3.50;;
11488;SDS011;5801;50.804;12.638;2023-05-07T14:19:18;4.15;;;3.45;;
11488;SDS011;5801;50.804;12.638;2023-05-07T14:21:44;4.38;;;3.78;;
11488;SDS011;5801;50.804;12.638;2023-05-07T14:24:10;4.35;;;3.25;;
11488;SDS011;5801;50.804;12.638;2023-05-07T14:26:36;4.55;;;3.63;;
11488;SDS011;5801;50.804;12.638;2023-05-07T14:29:02;5.53;;;3.70;;
11488;SDS011;5801;50.804;12.638;2023-05-07T14:31:28;3.85;;;3.42;;
11488;SDS011;5801;50.804;12.638;2023-05-07T14:33:54;12.32;;;3.92;;
11488;SDS011;5801;50.804;12.638;2023-05-07T14:36:22;5.35;;;3.00;;
11488;SDS011;5801;50.804;12.638;2023-05-07T14:38:50;4.45;;;3.22;;
11488;SDS011;5801;50.804;12.638;2023-05-07T14:41:17;4.97;;;2.90;;
11488;SDS011;5801;50.804;12.638;2023-05-07T14:43:43;3.97;;;2.90;;
11488;SDS011;5801;50.804;12.638;2023-05-07T14:46:14;5.47;;;2.97;;
11488;SDS011;5801;50.804;12.638;2023-05-07T14:48:40;3.42;;;2.80;;
11488;SDS011;5801;50.804;12.638;2023-05-07T14:51:06;4.35;;;3.60;;
11488;SDS011;5801;50.804;12.638;2023-05-07T14:53:32;3.85;;;2.85;;
11488;SDS011;5801;50.804;12.638;2023-05-07T14:55:58;5.38;;;3.83;;
11488;SDS011;5801;50.804;12.638;2023-05-07T14:58:25;3.80;;;3.38;;